Time;durP1;ratioP1;P1;durP2;ratioP2;P2;SDS_P1;SDS_P2;PMS_P1;PMS_P2;Temp;Humidity;BMP_temperature;BMP_pressure;BME280_temperature;BME280_humidity;BME280_pressure;Samples;Min_cycle;Max_cycle;Signal;HPM_P1;HPM_P2
2022/04/04 00:01:55;;;;;;;7.78;4.68;;;;;;;;;;5054307;28;20047;-28
2022/04/04 00:04:21;;;;;;;6.60;4.55;;;;;;;;;;5051559;28;20399;-28
2022/04/04 00:06:47;;;;;;;7.20;4.80;;;;;;;;;;5051772;28;20047;-28
2022/04/04 00:09:13;;;;;;;5.90;4.28;;;;;;;;;;5050524;28;20041;-28
2022/04/04 00:11:39;;;;;;;7.82;4.60;;;;;;;;;;5053025;28;20041;-28
2022/04/04 00:14:05;;;;;;;8.55;4.57;;;;;;;;;;5050725;28;20052;-28
2022/04/04 00:16:32;;;;;;;6.80;4.50;;;;;;;;;;5036312;28;20409;-28
2022/04/04 00:19:00;;;;;;;8.23;5.05;;;;;;;;;;5072992;28;20501;-29
2022/04/04 00:21:26;;;;;;;5.65;4.53;;;;;;;;;;5072466;28;20049;-25
2022/04/04 00:23:52;;;;;;;9.63;4.57;;;;;;;;;;5094189;28;20412;-25
2022/04/04 00:26:18;;;;;;;6.68;4.47;;;;;;;;;;5093579;28;20481;-25
2022/04/04 00:28:44;;;;;;;7.55;4.32;;;;;;;;;;5074033;28;20405;-27
2022/04/04 00:31:10;;;;;;;9.15;4.80;;;;;;;;;;5074066;28;20504;-25
2022/04/04 00:33:36;;;;;;;7.60;4.28;;;;;;;;;;5074246;28;20401;-26
2022/04/04 00:36:02;;;;;;;6.15;4.25;;;;;;;;;;5074290;28;20132;-26
2022/04/04 00:38:28;;;;;;;5.88;4.00;;;;;;;;;;5073964;28;20059;-25
2022/04/04 00:40:55;;;;;;;8.20;4.40;;;;;;;;;;5074032;28;20402;-25
2022/04/04 00:43:21;;;;;;;5.03;4.47;;;;;;;;;;5074026;28;20044;-28
2022/04/04 00:45:47;;;;;;;5.63;4.50;;;;;;;;;;5074163;28;20056;-26
2022/04/04 00:48:14;;;;;;;5.68;4.55;;;;;;;;;;5073581;28;20067;-24
2022/04/04 00:50:40;;;;;;;6.25;4.28;;;;;;;;;;5062295;28;20047;-29
2022/04/04 00:53:10;;;;;;;5.72;4.63;;;;;;;;;;5060947;28;20075;-27
2022/04/04 00:55:36;;;;;;;6.50;5.10;;;;;;;;;;5073539;28;20128;-29
2022/04/04 00:58:02;;;;;;;6.15;4.60;;;;;;;;;;5063277;28;20090;-31
2022/04/04 01:00:29;;;;;;;6.70;4.50;;;;;;;;;;5060611;28;20105;-30
2022/04/04 01:02:55;;;;;;;7.68;4.88;;;;;;;;;;5072110;28;20044;-29
2022/04/04 01:05:21;;;;;;;7.65;4.82;;;;;;;;;;5073036;28;20045;-30
2022/04/04 01:07:47;;;;;;;6.72;4.85;;;;;;;;;;5072033;28;20131;-28
2022/04/04 01:10:13;;;;;;;9.80;5.28;;;;;;;;;;5073146;28;20079;-31
2022/04/04 01:12:50;;;;;;;6.35;4.78;;;;;;;;;;5053628;28;20037;-30
2022/04/04 01:15:16;;;;;;;6.80;5.28;;;;;;;;;;5053369;28;20076;-31
2022/04/04 01:17:42;;;;;;;7.97;5.35;;;;;;;;;;5054069;28;20040;-28
2022/04/04 01:20:09;;;;;;;6.10;5.45;;;;;;;;;;5052830;28;20128;-29
2022/04/04 01:22:36;;;;;;;9.52;6.15;;;;;;;;;;5064013;28;20052;-29
2022/04/04 01:25:05;;;;;;;9.88;6.45;;;;;;;;;;5052996;28;20040;-30
2022/04/04 01:27:31;;;;;;;9.38;6.95;;;;;;;;;;5052147;28;20162;-29
2022/04/04 01:29:58;;;;;;;8.73;7.25;;;;;;;;;;5051429;28;20466;-28
2022/04/04 01:32:24;;;;;;;9.32;7.25;;;;;;;;;;5062947;28;20490;-27
2022/04/04 01:34:50;;;;;;;13.20;8.27;;;;;;;;;;5062744;28;20551;-28
2022/04/04 01:37:16;;;;;;;11.45;7.95;;;;;;;;;;5067926;28;20043;-30
2022/04/04 01:39:42;;;;;;;11.02;8.68;;;;;;;;;;5071081;28;20044;-29
2022/04/04 01:42:08;;;;;;;11.75;8.30;;;;;;;;;;5056233;28;20052;-29
2022/04/04 01:44:34;;;;;;;12.15;8.90;;;;;;;;;;5035514;28;20249;-29
2022/04/04 01:47:00;;;;;;;9.48;8.35;;;;;;;;;;5067843;28;20032;-30
2022/04/04 01:49:26;;;;;;;12.00;9.60;;;;;;;;;;5057687;28;20041;-30
2022/04/04 01:51:52;;;;;;;14.32;9.75;;;;;;;;;;5052586;28;20083;-28
2022/04/04 01:54:18;;;;;;;10.15;8.57;;;;;;;;;;5065057;28;20032;-30
2022/04/04 01:56:45;;;;;;;11.82;9.20;;;;;;;;;;5072056;28;20044;-30
2022/04/04 01:59:11;;;;;;;11.60;9.75;;;;;;;;;;5069418;28;20123;-28
2022/04/04 02:01:37;;;;;;;11.45;10.07;;;;;;;;;;5071815;28;20044;-30
2022/04/04 02:04:03;;;;;;;11.75;9.25;;;;;;;;;;5064289;28;20041;-28
2022/04/04 02:06:29;;;;;;;14.25;9.00;;;;;;;;;;5072278;28;20047;-30
2022/04/04 02:08:55;;;;;;;12.10;9.15;;;;;;;;;;5064972;28;20041;-29
2022/04/04 02:11:22;;;;;;;11.90;9.05;;;;;;;;;;5066908;28;20402;-31
2022/04/04 02:13:48;;;;;;;11.23;9.30;;;;;;;;;;5065051;28;20041;-29
2022/04/04 02:16:15;;;;;;;10.35;8.65;;;;;;;;;;5051848;28;20049;-31
2022/04/04 02:18:41;;;;;;;9.85;8.77;;;;;;;;;;5055479;28;20029;-31
2022/04/04 02:21:07;;;;;;;12.07;9.55;;;;;;;;;;5071966;28;20052;-30
2022/04/04 02:23:34;;;;;;;12.70;9.40;;;;;;;;;;5060560;28;20055;-29
2022/04/04 02:26:00;;;;;;;13.85;9.27;;;;;;;;;;5051877;28;20040;-29
2022/04/04 02:28:27;;;;;;;11.60;9.07;;;;;;;;;;5052097;28;20076;-28
2022/04/04 02:30:54;;;;;;;12.73;9.32;;;;;;;;;;5066969;28;20036;-29
2022/04/04 02:33:20;;;;;;;13.88;10.73;;;;;;;;;;5069855;28;20039;-29
2022/04/04 02:35:47;;;;;;;13.05;10.80;;;;;;;;;;5052356;28;20128;-30
2022/04/04 02:38:13;;;;;;;12.07;9.90;;;;;;;;;;5051549;28;20037;-31
2022/04/04 02:40:40;;;;;;;16.00;10.68;;;;;;;;;;5050915;28;20127;-27
2022/04/04 02:43:06;;;;;;;15.30;10.93;;;;;;;;;;5033311;28;20041;-28
2022/04/04 02:45:32;;;;;;;15.00;10.55;;;;;;;;;;5055268;28;20048;-29
2022/04/04 02:47:59;;;;;;;16.70;10.38;;;;;;;;;;5051136;28;20435;-31
2022/04/04 02:50:25;;;;;;;15.40;11.18;;;;;;;;;;5063484;28;20079;-28
2022/04/04 02:52:51;;;;;;;13.90;10.90;;;;;;;;;;5070776;28;20033;-31
2022/04/04 02:58:02;;;;;;;15.77;10.77;;;;;;;;;;5051151;28;20103;-29
2022/04/04 03:00:28;;;;;;;13.27;10.38;;;;;;;;;;5063979;28;20045;-28
2022/04/04 03:02:55;;;;;;;13.68;10.70;;;;;;;;;;5071903;28;20399;-29
2022/04/04 03:05:21;;;;;;;14.52;11.05;;;;;;;;;;5058464;28;20040;-28
2022/04/04 03:07:47;;;;;;;17.95;11.13;;;;;;;;;;5051420;28;20064;-26
2022/04/04 03:10:13;;;;;;;17.23;12.55;;;;;;;;;;5052157;28;20083;-25
2022/04/04 03:12:43;;;;;;;13.27;10.80;;;;;;;;;;5052454;28;20545;-26
2022/04/04 03:15:14;;;;;;;18.15;11.90;;;;;;;;;;5051796;28;20036;-27
2022/04/04 03:17:41;;;;;;;17.35;12.07;;;;;;;;;;5051476;28;20514;-26
2022/04/04 03:20:09;;;;;;;16.23;11.40;;;;;;;;;;5051466;28;20087;-27
2022/04/04 03:22:43;;;;;;;16.42;11.57;;;;;;;;;;5051331;28;20119;-26
2022/04/04 03:25:09;;;;;;;;;;;;;;;;;;5051726;28;20041;-26
2022/04/04 03:27:36;;;;;;;17.45;12.82;;;;;;;;;;5051533;28;19916;-27
2022/04/04 03:30:04;;;;;;;15.38;10.75;;;;;;;;;;5051082;28;20045;-26
2022/04/04 03:32:30;;;;;;;19.38;12.23;;;;;;;;;;5051161;28;20505;-27
2022/04/04 03:34:56;;;;;;;21.15;14.00;;;;;;;;;;5051182;28;20079;-28
2022/04/04 03:37:22;;;;;;;29.33;16.83;;;;;;;;;;5033089;28;20044;-26
2022/04/04 03:39:48;;;;;;;24.25;17.10;;;;;;;;;;5051155;28;20047;-26
2022/04/04 03:42:14;;;;;;;40.30;20.73;;;;;;;;;;5051067;28;20037;-27
2022/04/04 03:44:40;;;;;;;37.30;22.95;;;;;;;;;;5051283;28;20124;-29
2022/04/04 03:47:07;;;;;;;19.52;13.40;;;;;;;;;;5051140;28;20510;-27
2022/04/04 03:49:33;;;;;;;16.40;11.65;;;;;;;;;;5051547;28;20445;-26
2022/04/04 03:51:59;;;;;;;22.27;15.25;;;;;;;;;;5052604;28;20592;-26
2022/04/04 03:54:26;;;;;;;19.08;14.30;;;;;;;;;;5055185;28;20052;-26
2022/04/04 03:56:52;;;;;;;22.92;16.20;;;;;;;;;;5055627;28;20045;-26
2022/04/04 03:59:18;;;;;;;21.52;16.23;;;;;;;;;;5055324;28;20037;-25
2022/04/04 04:01:44;;;;;;;26.58;17.63;;;;;;;;;;5037574;28;20091;-28
2022/04/04 04:04:10;;;;;;;17.60;12.18;;;;;;;;;;5055541;28;20604;-26
2022/04/04 04:06:36;;;;;;;14.20;12.02;;;;;;;;;;5054941;28;20076;-26
2022/04/04 04:09:03;;;;;;;17.92;13.57;;;;;;;;;;5054946;28;20048;-26
2022/04/04 04:11:29;;;;;;;18.83;13.68;;;;;;;;;;5055109;28;20437;-26
2022/04/04 04:13:55;;;;;;;15.75;12.07;;;;;;;;;;5055137;28;20048;-27
2022/04/04 04:16:23;;;;;;;12.35;11.10;;;;;;;;;;5055262;28;20033;-29
2022/04/04 04:18:49;;;;;;;15.43;13.75;;;;;;;;;;5036881;28;20052;-27
2022/04/04 04:21:16;;;;;;;14.80;12.82;;;;;;;;;;5054898;28;20041;-27
2022/04/04 04:23:42;;;;;;;16.15;11.07;;;;;;;;;;5055049;28;20048;-26
2022/04/04 04:26:11;;;;;;;18.33;12.55;;;;;;;;;;5054852;28;20068;-26
2022/04/04 04:28:37;;;;;;;13.52;11.98;;;;;;;;;;5054948;28;20514;-27
2022/04/04 04:31:04;;;;;;;14.07;12.25;;;;;;;;;;5054793;28;20041;-28
2022/04/04 04:33:30;;;;;;;19.48;13.40;;;;;;;;;;5054636;28;20037;-27
2022/04/04 04:35:57;;;;;;;24.40;14.25;;;;;;;;;;5054910;28;20494;-27
2022/04/04 04:38:23;;;;;;;16.60;12.85;;;;;;;;;;5054328;28;20450;-27
2022/04/04 04:40:49;;;;;;;23.60;14.80;;;;;;;;;;5054886;28;20083;-27
2022/04/04 04:43:15;;;;;;;19.05;14.02;;;;;;;;;;5054452;28;20410;-26
2022/04/04 04:45:42;;;;;;;21.10;13.68;;;;;;;;;;5054668;28;20041;-26
2022/04/04 04:48:08;;;;;;;24.92;15.98;;;;;;;;;;5054378;28;20052;-26
2022/04/04 04:50:34;;;;;;;28.88;17.60;;;;;;;;;;5054455;28;20060;-26
2022/04/04 04:53:01;;;;;;;24.85;16.30;;;;;;;;;;5054400;28;20041;-26
2022/04/04 04:55:27;;;;;;;21.35;15.18;;;;;;;;;;5054483;28;20033;-26
2022/04/04 04:57:54;;;;;;;21.02;14.13;;;;;;;;;;5054005;28;20037;-25
2022/04/04 05:00:24;;;;;;;24.30;16.63;;;;;;;;;;5054213;28;20128;-26
2022/04/04 05:05:39;;;;;;;20.48;15.52;;;;;;;;;;5054446;28;20132;-27
2022/04/04 05:08:05;;;;;;;22.17;13.45;;;;;;;;;;5054294;28;20414;-26
2022/04/04 05:10:33;;;;;;;20.33;14.60;;;;;;;;;;5053713;28;20051;-28
2022/04/04 05:13:00;;;;;;;23.17;15.50;;;;;;;;;;5053478;28;20037;-26
2022/04/04 05:15:26;;;;;;;17.55;13.93;;;;;;;;;;5052682;28;20037;-28
2022/04/04 05:17:52;;;;;;;16.80;14.63;;;;;;;;;;5035481;28;20072;-27
2022/04/04 05:20:19;;;;;;;20.02;14.00;;;;;;;;;;5052642;28;20123;-28
2022/04/04 05:22:46;;;;;;;24.15;14.57;;;;;;;;;;5051169;28;20481;-27
2022/04/04 05:25:13;;;;;;;21.42;14.85;;;;;;;;;;5051748;28;20410;-26
2022/04/04 05:27:39;;;;;;;16.13;13.65;;;;;;;;;;5052205;28;20041;-26
2022/04/04 05:30:06;;;;;;;15.45;11.73;;;;;;;;;;5052453;28;20045;-26
2022/04/04 05:32:32;;;;;;;14.70;12.88;;;;;;;;;;5052563;28;20045;-25
2022/04/04 05:34:58;;;;;;;17.15;13.80;;;;;;;;;;5052639;28;20079;-26
2022/04/04 05:37:25;;;;;;;17.30;12.27;;;;;;;;;;5052841;28;20086;-27
2022/04/04 05:39:51;;;;;;;14.40;11.23;;;;;;;;;;5052847;28;20036;-25
2022/04/04 05:42:17;;;;;;;12.77;11.40;;;;;;;;;;5053412;28;20039;-26
2022/04/04 05:44:44;;;;;;;15.75;11.88;;;;;;;;;;5053394;28;20122;-25
2022/04/04 05:47:11;;;;;;;15.25;11.95;;;;;;;;;;5019024;28;20045;-26
2022/04/04 05:49:37;;;;;;;14.77;12.05;;;;;;;;;;5051970;28;20067;-27
2022/04/04 05:52:04;;;;;;;14.80;11.43;;;;;;;;;;5033303;28;20055;-25
2022/04/04 05:54:30;;;;;;;14.40;11.52;;;;;;;;;;5050977;28;20099;-26
2022/04/04 05:56:57;;;;;;;12.55;11.18;;;;;;;;;;5050999;28;20087;-26
2022/04/04 05:59:23;;;;;;;14.07;11.48;;;;;;;;;;5051468;28;20037;-27
2022/04/04 06:01:49;;;;;;;15.40;11.95;;;;;;;;;;5051321;28;20067;-27
2022/04/04 06:04:15;;;;;;;13.43;11.07;;;;;;;;;;5051737;28;20067;-27
2022/04/04 06:06:42;;;;;;;13.02;10.88;;;;;;;;;;5052324;28;20056;-25
2022/04/04 06:09:08;;;;;;;11.95;10.57;;;;;;;;;;5052641;28;20036;-27
2022/04/04 06:11:34;;;;;;;12.85;10.38;;;;;;;;;;5051996;28;20048;-26
2022/04/04 06:14:00;;;;;;;11.82;10.63;;;;;;;;;;5052242;28;20045;-26
2022/04/04 06:16:28;;;;;;;12.00;9.95;;;;;;;;;;5034697;28;20463;-27
2022/04/04 06:18:54;;;;;;;11.35;10.25;;;;;;;;;;5052562;28;20545;-27
2022/04/04 06:21:20;;;;;;;10.85;9.73;;;;;;;;;;5052392;28;20045;-26
2022/04/04 06:23:46;;;;;;;15.60;9.52;;;;;;;;;;5051827;28;20052;-29
2022/04/04 06:26:13;;;;;;;10.75;9.30;;;;;;;;;;5070533;28;20045;-30
2022/04/04 06:28:39;;;;;;;13.05;10.18;;;;;;;;;;5071573;28;20423;-29
2022/04/04 06:31:05;;;;;;;10.50;9.40;;;;;;;;;;5049303;28;20041;-29
2022/04/04 06:33:32;;;;;;;11.25;9.70;;;;;;;;;;5059527;28;20040;-30
2022/04/04 06:35:58;;;;;;;11.50;9.60;;;;;;;;;;5059447;28;20041;-30
2022/04/04 06:38:24;;;;;;;12.48;9.98;;;;;;;;;;5068183;28;20036;-28
2022/04/04 06:40:51;;;;;;;12.93;9.07;;;;;;;;;;5066352;28;20063;-28
2022/04/04 06:43:17;;;;;;;14.00;10.20;;;;;;;;;;5055084;28;20443;-28
2022/04/04 06:45:44;;;;;;;12.40;10.27;;;;;;;;;;5061198;28;20111;-26
2022/04/04 06:48:10;;;;;;;13.80;11.00;;;;;;;;;;5071200;28;20072;-24
2022/04/04 06:50:36;;;;;;;12.23;10.93;;;;;;;;;;5057412;28;20052;-30
2022/04/04 06:53:03;;;;;;;14.40;9.70;;;;;;;;;;5055186;28;20086;-29
2022/04/04 06:55:31;;;;;;;11.48;10.30;;;;;;;;;;5060314;28;20418;-32
2022/04/04 06:57:57;;;;;;;15.07;10.27;;;;;;;;;;5060739;28;20566;-31
2022/04/04 07:00:24;;;;;;;13.95;9.55;;;;;;;;;;5065489;28;20490;-30
2022/04/04 07:02:50;;;;;;;13.73;10.93;;;;;;;;;;5062820;28;20041;-32
2022/04/04 07:05:17;;;;;;;12.00;9.50;;;;;;;;;;5044640;28;20045;-31
2022/04/04 07:07:43;;;;;;;14.73;10.68;;;;;;;;;;5059452;28;20040;-29
2022/04/04 07:10:11;;;;;;;14.07;9.80;;;;;;;;;;5042346;28;20045;-31
2022/04/04 07:12:41;;;;;;;11.95;10.75;;;;;;;;;;5060910;28;20048;-29
2022/04/04 07:15:08;;;;;;;13.88;10.68;;;;;;;;;;5060219;28;20115;-28
2022/04/04 07:17:34;;;;;;;17.15;11.55;;;;;;;;;;5069843;28;20028;-32
2022/04/04 07:20:00;;;;;;;14.70;10.73;;;;;;;;;;5059645;28;20029;-34
2022/04/04 07:22:28;;;;;;;14.25;11.18;;;;;;;;;;5059048;28;20433;-31
2022/04/04 07:24:54;;;;;;;17.65;12.48;;;;;;;;;;5061300;28;20143;-31
2022/04/04 07:27:20;;;;;;;12.68;10.73;;;;;;;;;;5057773;28;20037;-29
2022/04/04 07:29:46;;;;;;;14.32;12.68;;;;;;;;;;5065261;28;20522;-29
2022/04/04 07:32:12;;;;;;;12.55;10.57;;;;;;;;;;5064146;28;20098;-30
2022/04/04 07:34:38;;;;;;;13.70;11.15;;;;;;;;;;5061504;28;20041;-25
2022/04/04 07:37:05;;;;;;;12.10;10.88;;;;;;;;;;5043945;28;20040;-29
2022/04/04 07:39:31;;;;;;;13.43;12.02;;;;;;;;;;5057601;28;20465;-29
2022/04/04 07:41:57;;;;;;;14.68;12.00;;;;;;;;;;5062695;28;20133;-31
2022/04/04 07:44:23;;;;;;;19.23;13.02;;;;;;;;;;5065832;28;20441;-29
2022/04/04 07:46:49;;;;;;;18.10;12.88;;;;;;;;;;5054340;28;20095;-31
2022/04/04 07:49:17;;;;;;;16.73;12.48;;;;;;;;;;5052819;28;20076;-31
2022/04/04 07:51:43;;;;;;;15.55;11.75;;;;;;;;;;5059242;28;20077;-30
2022/04/04 07:54:09;;;;;;;16.30;13.85;;;;;;;;;;5060617;28;20045;-31
2022/04/04 07:56:35;;;;;;;16.08;14.32;;;;;;;;;;5063195;28;20032;-33
2022/04/04 07:59:01;;;;;;;15.45;13.20;;;;;;;;;;5074243;28;20036;-32
2022/04/04 08:01:27;;;;;;;15.32;13.68;;;;;;;;;;5067333;28;20033;-31
2022/04/04 08:03:53;;;;;;;15.70;13.95;;;;;;;;;;5058164;28;20426;-31
2022/04/04 08:06:19;;;;;;;14.27;12.80;;;;;;;;;;5057063;28;20437;-30
2022/04/04 08:08:45;;;;;;;16.25;13.98;;;;;;;;;;5071567;28;20064;-30
2022/04/04 08:11:11;;;;;;;16.73;14.95;;;;;;;;;;5067555;28;20376;-29
2022/04/04 08:13:44;;;;;;;15.57;13.60;;;;;;;;;;5074191;28;20482;-30
2022/04/04 08:16:10;;;;;;;14.63;12.57;;;;;;;;;;5050664;28;20049;-33
2022/04/04 08:18:36;;;;;;;16.60;14.50;;;;;;;;;;5054910;28;20037;-31
2022/04/04 08:21:02;;;;;;;16.63;14.38;;;;;;;;;;5054320;28;20037;-30
2022/04/04 08:23:29;;;;;;;16.83;13.75;;;;;;;;;;5073455;28;20040;-32
2022/04/04 08:25:59;;;;;;;16.83;15.02;;;;;;;;;;5065928;28;20052;-30
2022/04/04 08:28:28;;;;;;;16.20;14.38;;;;;;;;;;5065620;28;20170;-30
2022/04/04 08:30:54;;;;;;;17.67;15.50;;;;;;;;;;5073021;28;20041;-29
2022/04/04 08:33:20;;;;;;;16.70;14.88;;;;;;;;;;5037479;28;20522;-33
2022/04/04 08:35:46;;;;;;;19.48;15.65;;;;;;;;;;5073049;28;20406;-31
2022/04/04 08:38:13;;;;;;;17.42;14.35;;;;;;;;;;5055605;28;20037;-33
2022/04/04 08:40:39;;;;;;;15.98;14.40;;;;;;;;;;5056882;28;20116;-31
2022/04/04 08:43:11;;;;;;;17.83;14.38;;;;;;;;;;5062534;28;20044;-32
2022/04/04 08:45:42;;;;;;;21.58;15.15;;;;;;;;;;5065681;28;20048;-30
2022/04/04 08:48:09;;;;;;;17.23;15.05;;;;;;;;;;5065498;28;20554;-32
2022/04/04 08:50:36;;;;;;;15.48;13.85;;;;;;;;;;5073261;28;20131;-30
2022/04/04 08:53:02;;;;;;;16.63;14.98;;;;;;;;;;5071015;28;20505;-31
2022/04/04 08:55:29;;;;;;;15.75;14.05;;;;;;;;;;5063107;28;20033;-30
2022/04/04 08:57:56;;;;;;;13.68;12.27;;;;;;;;;;5061433;28;20040;-29
2022/04/04 09:00:22;;;;;;;15.35;13.55;;;;;;;;;;5052951;28;20047;-30
2022/04/04 09:02:57;;;;;;;17.08;12.98;;;;;;;;;;5067007;28;20458;-30
2022/04/04 09:05:23;;;;;;;14.35;11.55;;;;;;;;;;5052981;28;20529;-32
2022/04/04 09:08:00;;;;;;;14.57;11.90;;;;;;;;;;5056313;28;20044;-33
2022/04/04 09:10:36;;;;;;;14.18;11.70;;;;;;;;;;5052647;28;20193;-28
2022/04/04 09:13:13;;;;;;;13.50;11.80;;;;;;;;;;5054088;28;20029;-28
2022/04/04 09:15:54;;;;;;;13.30;11.45;;;;;;;;;;5061030;28;20037;-28
2022/04/04 09:18:25;;;;;;;14.55;11.88;;;;;;;;;;5070675;28;20090;-30
2022/04/04 09:20:53;;;;;;;9.88;7.82;;;;;;;;;;5056024;28;20041;-30
2022/04/04 09:23:19;;;;;;;11.63;10.52;;;;;;;;;;5052871;28;20099;-30
2022/04/04 09:25:45;;;;;;;11.00;9.85;;;;;;;;;;5053139;28;20051;-31
2022/04/04 09:28:19;;;;;;;9.95;8.77;;;;;;;;;;5053339;28;20398;-32
2022/04/04 09:31:04;;;;;;;12.65;10.05;;;;;;;;;;5062724;28;20127;-29
2022/04/04 09:33:38;;;;;;;9.35;8.45;;;;;;;;;;5066261;28;20060;-33
2022/04/04 09:36:05;;;;;;;9.65;8.55;;;;;;;;;;5071129;28;20036;-29
2022/04/04 09:38:33;;;;;;;9.00;7.68;;;;;;;;;;5066224;28;20115;-31
2022/04/04 09:41:15;;;;;;;9.10;8.18;;;;;;;;;;5070754;28;20059;-30
2022/04/04 09:43:50;;;;;;;9.30;7.57;;;;;;;;;;5070659;28;20036;-31
2022/04/04 09:46:17;;;;;;;8.82;6.65;;;;;;;;;;5062135;28;20131;-31
2022/04/04 09:49:02;;;;;;;7.22;6.50;;;;;;;;;;5072222;28;20037;-30
2022/04/04 09:51:34;;;;;;;6.90;6.22;;;;;;;;;;5058383;28;20044;-32
2022/04/04 09:54:03;;;;;;;8.65;5.78;;;;;;;;;;5053464;28;20032;-31
2022/04/04 09:56:29;;;;;;;8.07;7.28;;;;;;;;;;5042730;28;20028;-30
2022/04/04 09:58:56;;;;;;;7.93;7.15;;;;;;;;;;5056381;28;20125;-31
2022/04/04 10:01:22;;;;;;;8.73;7.50;;;;;;;;;;5065851;28;20048;-31
2022/04/04 10:03:51;;;;;;;8.70;7.35;;;;;;;;;;5064120;28;20040;-33
2022/04/04 10:06:18;;;;;;;4.70;4.30;;;;;;;;;;5072011;28;20478;-29
2022/04/04 10:08:46;;;;;;;6.20;5.13;;;;;;;;;;5071581;28;20097;-30
2022/04/04 10:11:13;;;;;;;5.93;5.32;;;;;;;;;;5071156;28;20587;-30
2022/04/04 10:13:39;;;;;;;6.45;5.90;;;;;;;;;;5069516;28;20028;-31
2022/04/04 10:16:05;;;;;;;7.40;6.68;;;;;;;;;;5042923;28;20041;-31
2022/04/04 10:18:32;;;;;;;9.00;8.05;;;;;;;;;;5056557;28;20040;-29
2022/04/04 10:20:58;;;;;;;6.40;5.80;;;;;;;;;;5070185;28;20047;-30
2022/04/04 10:23:26;;;;;;;6.35;5.75;;;;;;;;;;5065710;28;20032;-34
2022/04/04 10:25:52;;;;;;;7.75;6.95;;;;;;;;;;5071599;28;20040;-29
2022/04/04 10:28:28;;;;;;;7.97;7.13;;;;;;;;;;5070831;28;20046;-31
2022/04/04 10:30:57;;;;;;;7.53;6.85;;;;;;;;;;5062434;28;20044;-31
2022/04/04 10:33:24;;;;;;;7.35;6.72;;;;;;;;;;5057437;28;20086;-30
2022/04/04 10:36:04;;;;;;;7.40;6.70;;;;;;;;;;5069434;28;20041;-33
2022/04/04 10:38:46;;;;;;;6.75;5.78;;;;;;;;;;5052588;28;20040;-32
2022/04/04 10:41:14;;;;;;;6.60;5.90;;;;;;;;;;5052649;28;20545;-30
2022/04/04 10:43:44;;;;;;;6.40;5.80;;;;;;;;;;5062914;28;20036;-31
2022/04/04 10:46:11;;;;;;;6.93;5.32;;;;;;;;;;5055589;28;20037;-31
2022/04/04 10:48:41;;;;;;;8.07;7.28;;;;;;;;;;5061466;28;20504;-31
2022/04/04 10:51:12;;;;;;;8.10;6.55;;;;;;;;;;5052004;28;20044;-32
2022/04/04 10:53:43;;;;;;;7.53;6.47;;;;;;;;;;5051679;28;20076;-30
2022/04/04 10:56:11;;;;;;;7.82;6.13;;;;;;;;;;5055669;28;20055;-30
2022/04/04 10:58:37;;;;;;;6.25;5.65;;;;;;;;;;5057259;28;20047;-32
2022/04/04 11:01:09;;;;;;;8.10;7.13;;;;;;;;;;5052304;28;20113;-30
2022/04/04 11:03:38;;;;;;;8.02;7.13;;;;;;;;;;5060795;28;20048;-31
2022/04/04 11:09:08;;;;;;;8.55;7.68;;;;;;;;;;5061391;28;20101;-31
2022/04/04 11:11:41;;;;;;;8.17;6.13;;;;;;;;;;5058877;28;20041;-31
2022/04/04 11:14:08;;;;;;;7.93;6.93;;;;;;;;;;5057065;28;20278;-33
2022/04/04 11:16:52;;;;;;;7.85;6.43;;;;;;;;;;5063797;28;20036;-34
2022/04/04 11:19:19;;;;;;;6.93;6.13;;;;;;;;;;5058013;28;20064;-31
2022/04/04 11:21:46;;;;;;;7.18;6.50;;;;;;;;;;5045626;28;20036;-33
2022/04/04 11:24:14;;;;;;;7.15;5.93;;;;;;;;;;5059472;28;20068;-30
2022/04/04 11:26:41;;;;;;;7.32;6.63;;;;;;;;;;5063951;28;20049;-26
2022/04/04 11:29:09;;;;;;;6.50;5.78;;;;;;;;;;5053645;28;20036;-27
2022/04/04 11:31:47;;;;;;;9.07;5.93;;;;;;;;;;5065878;28;20048;-28
2022/04/04 11:34:14;;;;;;;5.13;4.72;;;;;;;;;;5065332;28;20115;-27
2022/04/04 11:36:41;;;;;;;6.85;6.15;;;;;;;;;;5052696;28;20051;-27
2022/04/04 11:39:08;;;;;;;6.53;5.45;;;;;;;;;;5050266;28;20033;-27
2022/04/04 11:41:39;;;;;;;6.97;5.85;;;;;;;;;;5067187;28;20048;-27
2022/04/04 11:44:06;;;;;;;4.88;4.32;;;;;;;;;;5068949;28;20056;-27
2022/04/04 11:46:32;;;;;;;5.50;5.00;;;;;;;;;;5050995;28;20076;-26
2022/04/04 11:48:59;;;;;;;6.93;5.15;;;;;;;;;;5068758;28;20099;-26
2022/04/04 11:51:26;;;;;;;5.47;4.97;;;;;;;;;;5060689;28;20127;-27
2022/04/04 11:54:02;;;;;;;5.15;4.15;;;;;;;;;;5062056;28;20455;-25
2022/04/04 11:56:29;;;;;;;5.03;4.38;;;;;;;;;;5051200;28;20395;-27
2022/04/04 11:58:56;;;;;;;4.30;3.97;;;;;;;;;;5059019;28;20041;-27
2022/04/04 12:01:28;;;;;;;5.22;4.03;;;;;;;;;;5055513;28;20087;-27
2022/04/04 12:03:54;;;;;;;5.10;4.70;;;;;;;;;;5040897;28;20049;-28
2022/04/04 12:06:21;;;;;;;4.70;4.15;;;;;;;;;;5060240;28;20040;-30
2022/04/04 12:08:47;;;;;;;3.95;3.55;;;;;;;;;;5055638;28;20049;-27
2022/04/04 12:11:13;;;;;;;4.45;4.05;;;;;;;;;;5058106;28;20040;-26
2022/04/04 12:13:56;;;;;;;4.90;4.40;;;;;;;;;;5058042;28;20063;-27
2022/04/04 12:16:22;;;;;;;3.85;3.28;;;;;;;;;;5072233;28;20120;-28
2022/04/04 12:18:55;;;;;;;3.28;2.97;;;;;;;;;;5064272;28;20458;-28
2022/04/04 12:21:22;;;;;;;6.25;3.63;;;;;;;;;;5039916;28;20076;-28
2022/04/04 12:26:34;;;;;;;3.85;3.55;;;;;;;;;;5061079;28;20045;-28
2022/04/04 12:29:00;;;;;;;4.30;3.90;;;;;;;;;;5060934;28;20032;-28
2022/04/04 12:31:28;;;;;;;4.03;3.63;;;;;;;;;;5062528;28;20126;-28
2022/04/04 12:34:00;;;;;;;3.88;3.58;;;;;;;;;;5062395;28;20040;-28
2022/04/04 12:36:29;;;;;;;3.50;3.20;;;;;;;;;;5074126;28;20041;-28
2022/04/04 12:38:58;;;;;;;4.13;3.05;;;;;;;;;;5068182;28;20090;-29
2022/04/04 12:41:25;;;;;;;3.30;3.08;;;;;;;;;;5072832;28;20646;-30
2022/04/04 12:44:01;;;;;;;3.13;2.92;;;;;;;;;;5072090;28;20036;-32
2022/04/04 12:46:30;;;;;;;3.88;3.58;;;;;;;;;;5067964;28;20033;-30
2022/04/04 12:49:08;;;;;;;3.75;3.45;;;;;;;;;;5063391;28;20047;-30
2022/04/04 12:51:34;;;;;;;3.65;3.40;;;;;;;;;;5044927;28;20512;-30
2022/04/04 12:54:00;;;;;;;3.00;2.70;;;;;;;;;;5054374;28;20048;-30
2022/04/04 12:56:28;;;;;;;3.80;3.47;;;;;;;;;;5054638;28;20128;-31
2022/04/04 12:59:03;;;;;;;3.58;3.28;;;;;;;;;;5057430;28;20124;-31
2022/04/04 13:01:29;;;;;;;4.47;3.17;;;;;;;;;;5059112;28;20067;-32
2022/04/04 13:03:56;;;;;;;3.47;3.17;;;;;;;;;;5070143;28;20045;-34
2022/04/04 13:06:23;;;;;;;3.30;3.00;;;;;;;;;;5070784;28;20044;-31
2022/04/04 13:08:59;;;;;;;3.10;2.90;;;;;;;;;;5064670;28;20120;-30
2022/04/04 13:11:26;;;;;;;3.40;3.10;;;;;;;;;;5059931;28;20068;-30
2022/04/04 13:14:05;;;;;;;2.70;2.50;;;;;;;;;;5018875;28;20037;-29
2022/04/04 13:16:32;;;;;;;2.88;2.65;;;;;;;;;;5053881;28;20414;-31
2022/04/04 13:18:59;;;;;;;3.03;2.83;;;;;;;;;;5060170;28;20031;-33
2022/04/04 13:21:26;;;;;;;4.47;3.10;;;;;;;;;;5073063;28;20498;-33
2022/04/04 13:23:52;;;;;;;3.78;3.33;;;;;;;;;;5058692;28;20079;-32
2022/04/04 13:26:18;;;;;;;3.83;3.45;;;;;;;;;;5073459;28;20047;-30
2022/04/04 13:28:44;;;;;;;3.55;2.78;;;;;;;;;;5068581;28;20155;-32
2022/04/04 13:31:10;;;;;;;5.13;4.07;;;;;;;;;;5053138;28;20044;-31
2022/04/04 13:33:36;;;;;;;3.50;2.88;;;;;;;;;;5057026;28;20040;-30
2022/04/04 13:36:03;;;;;;;3.90;3.40;;;;;;;;;;5063488;28;20036;-29
2022/04/04 13:38:29;;;;;;;2.78;2.58;;;;;;;;;;5073028;28;20036;-30
2022/04/04 13:40:55;;;;;;;3.75;3.45;;;;;;;;;;5073623;28;20217;-30
2022/04/04 13:43:21;;;;;;;3.28;2.97;;;;;;;;;;5072931;28;20123;-29
2022/04/04 13:45:47;;;;;;;3.20;2.92;;;;;;;;;;5062609;28;20052;-30
2022/04/04 13:48:13;;;;;;;2.53;2.33;;;;;;;;;;5053242;28;20045;-30
2022/04/04 13:50:39;;;;;;;3.40;2.70;;;;;;;;;;5053042;28;20051;-30
2022/04/04 13:53:05;;;;;;;3.13;2.80;;;;;;;;;;5053022;28;20045;-30
2022/04/04 13:55:31;;;;;;;3.03;2.83;;;;;;;;;;5059774;28;20039;-29
2022/04/04 13:57:57;;;;;;;3.20;2.75;;;;;;;;;;5073083;28;20036;-30
2022/04/04 14:00:24;;;;;;;3.45;3.03;;;;;;;;;;5063287;28;20039;-30
2022/04/04 14:02:50;;;;;;;2.65;2.45;;;;;;;;;;5054854;28;20029;-29
2022/04/04 14:05:16;;;;;;;2.92;2.22;;;;;;;;;;5072829;28;20029;-31
2022/04/04 14:07:43;;;;;;;2.80;2.60;;;;;;;;;;5072675;28;20119;-29
2022/04/04 14:10:11;;;;;;;2.35;2.15;;;;;;;;;;5072440;28;20041;-32
2022/04/04 14:12:38;;;;;;;1.95;1.85;;;;;;;;;;5072939;28;20486;-29
2022/04/04 14:15:07;;;;;;;3.20;2.90;;;;;;;;;;5078723;28;20032;-29
2022/04/04 14:17:37;;;;;;;2.72;2.30;;;;;;;;;;5092664;28;20078;-30
2022/04/04 14:20:04;;;;;;;2.58;2.38;;;;;;;;;;5089303;28;20037;-30
2022/04/04 14:22:31;;;;;;;2.63;2.28;;;;;;;;;;5072500;28;20056;-30
2022/04/04 14:24:57;;;;;;;2.70;2.50;;;;;;;;;;5072767;28;20033;-29
2022/04/04 14:27:25;;;;;;;2.20;1.95;;;;;;;;;;5069142;28;20044;-29
2022/04/04 14:29:51;;;;;;;2.55;2.30;;;;;;;;;;5072333;28;20048;-29
2022/04/04 14:32:17;;;;;;;2.63;2.42;;;;;;;;;;5060928;28;20047;-29
2022/04/04 14:34:44;;;;;;;2.63;2.42;;;;;;;;;;5052437;28;20041;-29
2022/04/04 14:37:10;;;;;;;2.78;2.58;;;;;;;;;;5051761;28;20041;-30
2022/04/04 14:39:38;;;;;;;2.65;2.45;;;;;;;;;;5056605;28;20036;-28
2022/04/04 14:42:05;;;;;;;2.75;1.90;;;;;;;;;;5069089;28;20048;-29
2022/04/04 14:44:31;;;;;;;3.13;2.28;;;;;;;;;;5067775;28;20047;-29